Crestone, Colorado
Current Conditions -  °F | °C
As of 3:08 PM on Saturday 20 Dec 2014 (Local Time) from K04V Reporting Station
Scattered Clouds Scattered Clouds  
Wind Chill: 30°   Ceiling: Unl
Heat Index: 36°   Visibility: 10mi
Dew Point: 14°   Wind: 7mph
Humidity: 41%   Direction: 160°SSE
Pressure: 30.05"   Gusts: NA
Location:  38°N, 105.7°W
Report Text: K04V 202208Z AUTO 16006KT 10SM SCT055 SCT070 02/M10 A3005 RMK AO2
Loading
Personal Weather Stations






























Interactive Weather Map New forecast layout! Learn more

10-Day Weather Forecast

Advertisements
Track Severe Weather on mobile